sensor_id;sensor_type;location;lat;lon;timestamp;temperature;humidity
8103;DHT22;4094;49.948;11.574;2023-04-03T00:01:40;7.80;55.50
8103;DHT22;4094;49.948;11.574;2023-04-03T00:04:10;7.80;55.60
8103;DHT22;4094;49.948;11.574;2023-04-03T00:06:39;7.80;55.70
8103;DHT22;4094;49.948;11.574;2023-04-03T00:09:08;7.70;55.80
8103;DHT22;4094;49.948;11.574;2023-04-03T00:11:38;7.70;56.00
8103;DHT22;4094;49.948;11.574;2023-04-03T00:14:08;7.70;56.20
8103;DHT22;4094;49.948;11.574;2023-04-03T00:16:36;7.70;56.30
8103;DHT22;4094;49.948;11.574;2023-04-03T00:19:06;7.70;56.30
8103;DHT22;4094;49.948;11.574;2023-04-03T00:21:35;7.70;56.40
8103;DHT22;4094;49.948;11.574;2023-04-03T00:24:04;7.70;56.50
8103;DHT22;4094;49.948;11.574;2023-04-03T00:26:34;7.70;56.50
8103;DHT22;4094;49.948;11.574;2023-04-03T00:29:05;7.70;56.50
8103;DHT22;4094;49.948;11.574;2023-04-03T00:31:34;7.70;56.60
8103;DHT22;4094;49.948;11.574;2023-04-03T00:34:03;7.80;56.70
8103;DHT22;4094;49.948;11.574;2023-04-03T00:36:32;7.80;56.80
8103;DHT22;4094;49.948;11.574;2023-04-03T00:39:01;7.80;56.70
8103;DHT22;4094;49.948;11.574;2023-04-03T00:41:30;7.90;56.80
8103;DHT22;4094;49.948;11.574;2023-04-03T00:43:59;7.90;56.80
8103;DHT22;4094;49.948;11.574;2023-04-03T00:46:30;7.90;56.80
8103;DHT22;4094;49.948;11.574;2023-04-03T00:48:59;7.90;56.70
8103;DHT22;4094;49.948;11.574;2023-04-03T00:51:28;8.00;56.70
8103;DHT22;4094;49.948;11.574;2023-04-03T00:54:02;8.00;56.70
8103;DHT22;4094;49.948;11.574;2023-04-03T00:56:32;8.00;56.70
8103;DHT22;4094;49.948;11.574;2023-04-03T00:59:04;8.00;56.70
8103;DHT22;4094;49.948;11.574;2023-04-03T01:01:37;8.00;56.70
8103;DHT22;4094;49.948;11.574;2023-04-03T01:04:27;8.10;56.80
8103;DHT22;4094;49.948;11.574;2023-04-03T01:06:58;8.10;56.90
8103;DHT22;4094;49.948;11.574;2023-04-03T01:09:29;8.10;56.70
8103;DHT22;4094;49.948;11.574;2023-04-03T01:12:14;8.10;56.90
8103;DHT22;4094;49.948;11.574;2023-04-03T01:14:43;8.10;56.80
8103;DHT22;4094;49.948;11.574;2023-04-03T01:17:33;8.10;56.80
8103;DHT22;4094;49.948;11.574;2023-04-03T01:23:15;8.10;56.90
8103;DHT22;4094;49.948;11.574;2023-04-03T01:25:47;8.10;57.00
8103;DHT22;4094;49.948;11.574;2023-04-03T01:28:20;8.10;56.90
8103;DHT22;4094;49.948;11.574;2023-04-03T01:30:55;8.10;57.00
8103;DHT22;4094;49.948;11.574;2023-04-03T01:33:27;8.10;57.10
8103;DHT22;4094;49.948;11.574;2023-04-03T01:35:56;8.20;57.10
8103;DHT22;4094;49.948;11.574;2023-04-03T01:38:26;8.20;57.10
8103;DHT22;4094;49.948;11.574;2023-04-03T01:40:55;8.20;57.20
8103;DHT22;4094;49.948;11.574;2023-04-03T01:43:25;8.20;57.20
8103;DHT22;4094;49.948;11.574;2023-04-03T01:45:54;8.20;57.30
8103;DHT22;4094;49.948;11.574;2023-04-03T01:48:24;8.20;57.30
8103;DHT22;4094;49.948;11.574;2023-04-03T01:50:56;8.20;57.30
8103;DHT22;4094;49.948;11.574;2023-04-03T01:53:25;8.20;57.30
8103;DHT22;4094;49.948;11.574;2023-04-03T01:55:54;8.20;57.30
8103;DHT22;4094;49.948;11.574;2023-04-03T01:58:24;8.20;57.30
8103;DHT22;4094;49.948;11.574;2023-04-03T02:00:54;8.20;57.30
8103;DHT22;4094;49.948;11.574;2023-04-03T02:03:23;8.20;57.40
8103;DHT22;4094;49.948;11.574;2023-04-03T02:05:52;8.20;57.40
8103;DHT22;4094;49.948;11.574;2023-04-03T02:08:23;8.20;57.30
8103;DHT22;4094;49.948;11.574;2023-04-03T02:10:52;8.20;57.40
8103;DHT22;4094;49.948;11.574;2023-04-03T02:13:21;8.20;57.40
8103;DHT22;4094;49.948;11.574;2023-04-03T02:15:50;8.20;57.50
8103;DHT22;4094;49.948;11.574;2023-04-03T02:18:19;8.20;57.50
8103;DHT22;4094;49.948;11.574;2023-04-03T02:20:49;8.10;57.60
8103;DHT22;4094;49.948;11.574;2023-04-03T02:23:18;8.20;57.60
8103;DHT22;4094;49.948;11.574;2023-04-03T02:25:48;8.20;57.60
8103;DHT22;4094;49.948;11.574;2023-04-03T02:28:17;8.10;57.60
8103;DHT22;4094;49.948;11.574;2023-04-03T02:30:47;8.20;57.60
8103;DHT22;4094;49.948;11.574;2023-04-03T02:33:16;8.20;57.60
8103;DHT22;4094;49.948;11.574;2023-04-03T02:35:45;8.20;57.60
8103;DHT22;4094;49.948;11.574;2023-04-03T02:38:22;8.20;57.60
8103;DHT22;4094;49.948;11.574;2023-04-03T02:40:52;8.20;57.50
8103;DHT22;4094;49.948;11.574;2023-04-03T02:43:21;8.10;57.60
8103;DHT22;4094;49.948;11.574;2023-04-03T02:45:51;8.10;57.60
8103;DHT22;4094;49.948;11.574;2023-04-03T02:48:20;8.10;57.60
8103;DHT22;4094;49.948;11.574;2023-04-03T02:50:49;8.10;57.50
8103;DHT22;4094;49.948;11.574;2023-04-03T02:53:19;8.10;57.60
8103;DHT22;4094;49.948;11.574;2023-04-03T02:55:50;8.10;57.50
8103;DHT22;4094;49.948;11.574;2023-04-03T02:58:20;8.10;57.50
8103;DHT22;4094;49.948;11.574;2023-04-03T03:00:50;8.10;57.70
8103;DHT22;4094;49.948;11.574;2023-04-03T03:03:19;8.10;57.70
8103;DHT22;4094;49.948;11.574;2023-04-03T03:05:48;8.10;57.50
8103;DHT22;4094;49.948;11.574;2023-04-03T03:08:17;8.10;57.70
8103;DHT22;4094;49.948;11.574;2023-04-03T03:10:48;8.00;57.60
8103;DHT22;4094;49.948;11.574;2023-04-03T03:13:20;8.00;57.60
8103;DHT22;4094;49.948;11.574;2023-04-03T03:15:49;8.00;57.60
8103;DHT22;4094;49.948;11.574;2023-04-03T03:18:18;8.00;57.60
8103;DHT22;4094;49.948;11.574;2023-04-03T03:20:51;8.00;57.60
8103;DHT22;4094;49.948;11.574;2023-04-03T03:23:22;8.00;57.50
8103;DHT22;4094;49.948;11.574;2023-04-03T03:25:54;7.90;57.60
8103;DHT22;4094;49.948;11.574;2023-04-03T03:28:25;7.90;57.60
8103;DHT22;4094;49.948;11.574;2023-04-03T03:30:54;7.90;57.60
8103;DHT22;4094;49.948;11.574;2023-04-03T03:33:24;7.90;57.50
8103;DHT22;4094;49.948;11.574;2023-04-03T03:35:53;7.90;57.60
8103;DHT22;4094;49.948;11.574;2023-04-03T03:38:22;7.90;57.50
8103;DHT22;4094;49.948;11.574;2023-04-03T03:40:52;7.90;57.60
8103;DHT22;4094;49.948;11.574;2023-04-03T03:43:24;7.90;57.90
8103;DHT22;4094;49.948;11.574;2023-04-03T03:45:55;7.90;57.90
8103;DHT22;4094;49.948;11.574;2023-04-03T03:48:25;7.90;57.80
8103;DHT22;4094;49.948;11.574;2023-04-03T03:50:54;7.90;57.40
8103;DHT22;4094;49.948;11.574;2023-04-03T03:53:27;7.80;57.60
8103;DHT22;4094;49.948;11.574;2023-04-03T03:55:59;7.80;57.50
8103;DHT22;4094;49.948;11.574;2023-04-03T03:58:32;7.90;57.70
8103;DHT22;4094;49.948;11.574;2023-04-03T04:01:02;7.80;57.60
8103;DHT22;4094;49.948;11.574;2023-04-03T04:03:36;7.80;57.60
8103;DHT22;4094;49.948;11.574;2023-04-03T04:06:08;7.80;57.50
8103;DHT22;4094;49.948;11.574;2023-04-03T04:08:37;7.80;57.60
8103;DHT22;4094;49.948;11.574;2023-04-03T04:11:09;7.80;57.60
8103;DHT22;4094;49.948;11.574;2023-04-03T04:13:40;7.70;57.70
8103;DHT22;4094;49.948;11.574;2023-04-03T04:16:11;7.70;57.60
8103;DHT22;4094;49.948;11.574;2023-04-03T04:18:40;7.70;57.60
8103;DHT22;4094;49.948;11.574;2023-04-03T04:21:09;7.70;57.50
8103;DHT22;4094;49.948;11.574;2023-04-03T04:23:39;7.70;57.50
8103;DHT22;4094;49.948;11.574;2023-04-03T04:26:08;7.70;57.50
8103;DHT22;4094;49.948;11.574;2023-04-03T04:28:41;7.60;57.50
8103;DHT22;4094;49.948;11.574;2023-04-03T04:31:10;7.60;57.50
8103;DHT22;4094;49.948;11.574;2023-04-03T04:33:39;7.60;57.60
8103;DHT22;4094;49.948;11.574;2023-04-03T04:36:11;7.60;57.60
8103;DHT22;4094;49.948;11.574;2023-04-03T04:38:44;7.60;57.50
8103;DHT22;4094;49.948;11.574;2023-04-03T04:41:14;7.60;57.40
8103;DHT22;4094;49.948;11.574;2023-04-03T04:43:45;7.60;57.50
8103;DHT22;4094;49.948;11.574;2023-04-03T04:46:16;7.60;57.50
8103;DHT22;4094;49.948;11.574;2023-04-03T04:48:50;7.50;57.40
8103;DHT22;4094;49.948;11.574;2023-04-03T04:51:21;7.50;57.40
8103;DHT22;4094;49.948;11.574;2023-04-03T04:53:50;7.50;57.50
8103;DHT22;4094;49.948;11.574;2023-04-03T04:56:22;7.50;57.50
8103;DHT22;4094;49.948;11.574;2023-04-03T04:58:52;7.50;57.40
8103;DHT22;4094;49.948;11.574;2023-04-03T05:01:22;7.50;57.50
8103;DHT22;4094;49.948;11.574;2023-04-03T05:04:00;7.50;57.30
8103;DHT22;4094;49.948;11.574;2023-04-03T05:06:29;7.50;57.20
8103;DHT22;4094;49.948;11.574;2023-04-03T05:09:00;7.40;57.20
8103;DHT22;4094;49.948;11.574;2023-04-03T05:11:31;7.40;57.20
8103;DHT22;4094;49.948;11.574;2023-04-03T05:14:02;7.40;57.20
8103;DHT22;4094;49.948;11.574;2023-04-03T05:16:34;7.40;57.20
8103;DHT22;4094;49.948;11.574;2023-04-03T05:19:03;7.30;57.40
8103;DHT22;4094;49.948;11.574;2023-04-03T05:21:33;7.30;57.50
8103;DHT22;4094;49.948;11.574;2023-04-03T05:24:07;7.30;57.50
8103;DHT22;4094;49.948;11.574;2023-04-03T05:26:40;7.30;57.30
8103;DHT22;4094;49.948;11.574;2023-04-03T05:29:11;7.30;57.30
8103;DHT22;4094;49.948;11.574;2023-04-03T05:31:41;7.30;57.30
8103;DHT22;4094;49.948;11.574;2023-04-03T05:34:12;7.30;57.30
8103;DHT22;4094;49.948;11.574;2023-04-03T05:36:42;7.30;57.30
8103;DHT22;4094;49.948;11.574;2023-04-03T05:39:12;7.30;57.40
8103;DHT22;4094;49.948;11.574;2023-04-03T05:41:44;7.30;57.30
8103;DHT22;4094;49.948;11.574;2023-04-03T05:44:14;7.30;57.30
8103;DHT22;4094;49.948;11.574;2023-04-03T05:46:46;7.40;57.20
8103;DHT22;4094;49.948;11.574;2023-04-03T05:49:15;7.30;57.20
8103;DHT22;4094;49.948;11.574;2023-04-03T05:51:44;7.40;57.10
8103;DHT22;4094;49.948;11.574;2023-04-03T05:54:20;7.40;57.00
8103;DHT22;4094;49.948;11.574;2023-04-03T05:56:54;7.40;57.00
8103;DHT22;4094;49.948;11.574;2023-04-03T05:59:25;7.40;57.00
8103;DHT22;4094;49.948;11.574;2023-04-03T06:01:57;7.40;57.20
8103;DHT22;4094;49.948;11.574;2023-04-03T06:04:26;7.40;57.00
8103;DHT22;4094;49.948;11.574;2023-04-03T06:06:57;7.40;57.00
8103;DHT22;4094;49.948;11.574;2023-04-03T06:09:27;7.40;57.00
8103;DHT22;4094;49.948;11.574;2023-04-03T06:11:57;7.50;57.10
8103;DHT22;4094;49.948;11.574;2023-04-03T06:14:30;7.50;57.00
8103;DHT22;4094;49.948;11.574;2023-04-03T06:16:59;7.50;57.00
8103;DHT22;4094;49.948;11.574;2023-04-03T06:19:29;7.60;56.90
8103;DHT22;4094;49.948;11.574;2023-04-03T06:21:58;7.60;56.50
8103;DHT22;4094;49.948;11.574;2023-04-03T06:24:28;7.60;56.40
8103;DHT22;4094;49.948;11.574;2023-04-03T06:26:58;7.60;56.50
8103;DHT22;4094;49.948;11.574;2023-04-03T06:29:27;7.70;56.50
8103;DHT22;4094;49.948;11.574;2023-04-03T06:31:57;7.70;56.30
8103;DHT22;4094;49.948;11.574;2023-04-03T06:34:27;7.80;56.00
8103;DHT22;4094;49.948;11.574;2023-04-03T06:36:56;7.80;56.00
8103;DHT22;4094;49.948;11.574;2023-04-03T06:39:25;7.90;56.00
8103;DHT22;4094;49.948;11.574;2023-04-03T06:41:55;7.90;56.00
8103;DHT22;4094;49.948;11.574;2023-04-03T06:44:35;8.00;55.80
8103;DHT22;4094;49.948;11.574;2023-04-03T06:47:05;8.00;55.60
8103;DHT22;4094;49.948;11.574;2023-04-03T06:49:34;8.10;55.60
8103;DHT22;4094;49.948;11.574;2023-04-03T06:52:05;8.10;55.70
8103;DHT22;4094;49.948;11.574;2023-04-03T06:54:34;8.20;55.40
8103;DHT22;4094;49.948;11.574;2023-04-03T06:57:03;8.20;55.30
8103;DHT22;4094;49.948;11.574;2023-04-03T06:59:32;8.30;55.20
8103;DHT22;4094;49.948;11.574;2023-04-03T07:02:02;8.40;55.40
8103;DHT22;4094;49.948;11.574;2023-04-03T07:04:32;8.40;55.20
8103;DHT22;4094;49.948;11.574;2023-04-03T07:07:02;8.50;54.70
8103;DHT22;4094;49.948;11.574;2023-04-03T07:09:31;8.60;54.60
8103;DHT22;4094;49.948;11.574;2023-04-03T07:12:00;8.70;54.60
8103;DHT22;4094;49.948;11.574;2023-04-03T07:14:29;8.70;54.30
8103;DHT22;4094;49.948;11.574;2023-04-03T07:16:58;8.80;54.30
8103;DHT22;4094;49.948;11.574;2023-04-03T07:19:28;8.90;54.40
8103;DHT22;4094;49.948;11.574;2023-04-03T07:21:58;9.00;54.30
8103;DHT22;4094;49.948;11.574;2023-04-03T07:24:27;9.20;54.40
8103;DHT22;4094;49.948;11.574;2023-04-03T07:26:56;9.30;54.20
8103;DHT22;4094;49.948;11.574;2023-04-03T07:29:25;9.40;53.90
8103;DHT22;4094;49.948;11.574;2023-04-03T07:31:54;9.50;53.80
8103;DHT22;4094;49.948;11.574;2023-04-03T07:34:24;9.60;53.70
8103;DHT22;4094;49.948;11.574;2023-04-03T07:36:53;9.70;53.80
8103;DHT22;4094;49.948;11.574;2023-04-03T07:39:24;9.90;53.30
8103;DHT22;4094;49.948;11.574;2023-04-03T07:41:53;10.10;53.30
8103;DHT22;4094;49.948;11.574;2023-04-03T07:44:23;10.20;52.70
8103;DHT22;4094;49.948;11.574;2023-04-03T07:46:53;10.40;52.30
8103;DHT22;4094;49.948;11.574;2023-04-03T07:49:23;10.60;52.00
8103;DHT22;4094;49.948;11.574;2023-04-03T07:51:52;10.80;51.90
8103;DHT22;4094;49.948;11.574;2023-04-03T07:54:23;11.00;51.40
8103;DHT22;4094;49.948;11.574;2023-04-03T07:56:52;11.20;51.00
8103;DHT22;4094;49.948;11.574;2023-04-03T07:59:22;11.50;51.10
8103;DHT22;4094;49.948;11.574;2023-04-03T08:01:51;11.70;50.50
8103;DHT22;4094;49.948;11.574;2023-04-03T08:04:20;12.00;50.30
8103;DHT22;4094;49.948;11.574;2023-04-03T08:06:49;12.20;49.70
8103;DHT22;4094;49.948;11.574;2023-04-03T08:09:19;12.40;49.60
8103;DHT22;4094;49.948;11.574;2023-04-03T08:11:49;12.50;49.00
8103;DHT22;4094;49.948;11.574;2023-04-03T08:14:21;12.70;48.20
8103;DHT22;4094;49.948;11.574;2023-04-03T08:16:50;12.70;48.10
8103;DHT22;4094;49.948;11.574;2023-04-03T08:19:19;12.80;47.40
8103;DHT22;4094;49.948;11.574;2023-04-03T08:21:54;12.70;46.70
8103;DHT22;4094;49.948;11.574;2023-04-03T08:24:24;12.60;46.70
8103;DHT22;4094;49.948;11.574;2023-04-03T08:26:55;12.60;46.40
8103;DHT22;4094;49.948;11.574;2023-04-03T08:29:24;12.50;46.50
8103;DHT22;4094;49.948;11.574;2023-04-03T08:31:54;12.40;46.70
8103;DHT22;4094;49.948;11.574;2023-04-03T08:34:23;12.30;47.20
8103;DHT22;4094;49.948;11.574;2023-04-03T08:36:52;12.20;46.70
8103;DHT22;4094;49.948;11.574;2023-04-03T08:39:21;12.10;46.20
8103;DHT22;4094;49.948;11.574;2023-04-03T08:41:50;12.00;46.10
8103;DHT22;4094;49.948;11.574;2023-04-03T08:44:25;11.90;45.90
8103;DHT22;4094;49.948;11.574;2023-04-03T08:47:08;11.80;46.10
8103;DHT22;4094;49.948;11.574;2023-04-03T08:49:41;11.70;46.40
8103;DHT22;4094;49.948;11.574;2023-04-03T08:52:19;11.60;46.30
8103;DHT22;4094;49.948;11.574;2023-04-03T08:54:51;11.50;45.20
8103;DHT22;4094;49.948;11.574;2023-04-03T08:57:28;11.40;45.70
8103;DHT22;4094;49.948;11.574;2023-04-03T09:00:03;11.30;45.10
8103;DHT22;4094;49.948;11.574;2023-04-03T09:02:42;11.20;44.90
8103;DHT22;4094;49.948;11.574;2023-04-03T09:05:15;11.10;45.30
8103;DHT22;4094;49.948;11.574;2023-04-03T09:07:49;11.00;45.60
8103;DHT22;4094;49.948;11.574;2023-04-03T09:10:28;11.00;45.90
8103;DHT22;4094;49.948;11.574;2023-04-03T09:13:03;11.00;46.00
8103;DHT22;4094;49.948;11.574;2023-04-03T09:15:36;11.00;46.20
8103;DHT22;4094;49.948;11.574;2023-04-03T09:18:12;11.00;45.70
8103;DHT22;4094;49.948;11.574;2023-04-03T09:20:48;11.00;45.80
8103;DHT22;4094;49.948;11.574;2023-04-03T09:23:23;11.00;46.00
8103;DHT22;4094;49.948;11.574;2023-04-03T09:25:58;11.00;46.10
8103;DHT22;4094;49.948;11.574;2023-04-03T09:28:30;11.00;45.70
8103;DHT22;4094;49.948;11.574;2023-04-03T09:31:20;10.90;45.70
8103;DHT22;4094;49.948;11.574;2023-04-03T09:33:53;10.90;46.10
8103;DHT22;4094;49.948;11.574;2023-04-03T09:36:39;10.90;46.60
8103;DHT22;4094;49.948;11.574;2023-04-03T09:39:12;10.90;46.10
8103;DHT22;4094;49.948;11.574;2023-04-03T09:41:44;10.90;46.20
8103;DHT22;4094;49.948;11.574;2023-04-03T09:44:25;10.90;45.90
8103;DHT22;4094;49.948;11.574;2023-04-03T09:46:55;10.90;45.20
8103;DHT22;4094;49.948;11.574;2023-04-03T09:49:24;10.90;45.50
8103;DHT22;4094;49.948;11.574;2023-04-03T09:51:54;11.00;45.80
8103;DHT22;4094;49.948;11.574;2023-04-03T09:54:34;11.00;46.20
8103;DHT22;4094;49.948;11.574;2023-04-03T09:57:11;11.00;46.40
8103;DHT22;4094;49.948;11.574;2023-04-03T09:59:45;11.10;46.00
8103;DHT22;4094;49.948;11.574;2023-04-03T10:02:30;11.20;45.70
8103;DHT22;4094;49.948;11.574;2023-04-03T10:05:01;11.20;45.10
8103;DHT22;4094;49.948;11.574;2023-04-03T10:07:34;11.30;45.70
8103;DHT22;4094;49.948;11.574;2023-04-03T10:10:17;11.30;44.50
8103;DHT22;4094;49.948;11.574;2023-04-03T10:12:47;11.30;44.30
8103;DHT22;4094;49.948;11.574;2023-04-03T10:15:17;11.30;44.80
8103;DHT22;4094;49.948;11.574;2023-04-03T10:17:56;11.40;45.00
8103;DHT22;4094;49.948;11.574;2023-04-03T10:20:33;11.40;44.50
8103;DHT22;4094;49.948;11.574;2023-04-03T10:23:16;11.40;44.00
8103;DHT22;4094;49.948;11.574;2023-04-03T10:25:55;11.40;43.70
8103;DHT22;4094;49.948;11.574;2023-04-03T10:28:32;11.50;43.70
8103;DHT22;4094;49.948;11.574;2023-04-03T10:31:07;11.40;44.10
8103;DHT22;4094;49.948;11.574;2023-04-03T10:33:48;11.40;44.30
8103;DHT22;4094;49.948;11.574;2023-04-03T10:36:28;11.50;44.70
8103;DHT22;4094;49.948;11.574;2023-04-03T10:39:04;11.50;44.20
8103;DHT22;4094;49.948;11.574;2023-04-03T10:41:47;11.50;43.60
8103;DHT22;4094;49.948;11.574;2023-04-03T10:44:32;11.60;44.00
8103;DHT22;4094;49.948;11.574;2023-04-03T10:47:09;11.60;44.60
8103;DHT22;4094;49.948;11.574;2023-04-03T10:49:50;11.60;44.50
8103;DHT22;4094;49.948;11.574;2023-04-03T10:52:32;11.70;43.80
8103;DHT22;4094;49.948;11.574;2023-04-03T10:55:23;11.70;43.70
8103;DHT22;4094;49.948;11.574;2023-04-03T10:57:54;11.70;43.90
8103;DHT22;4094;49.948;11.574;2023-04-03T11:00:35;11.70;43.90
8103;DHT22;4094;49.948;11.574;2023-04-03T11:03:10;11.70;44.00
8103;DHT22;4094;49.948;11.574;2023-04-03T11:05:44;11.80;43.90
8103;DHT22;4094;49.948;11.574;2023-04-03T11:08:24;11.80;43.10
8103;DHT22;4094;49.948;11.574;2023-04-03T11:10:57;11.90;43.50
8103;DHT22;4094;49.948;11.574;2023-04-03T11:13:33;12.00;43.60
8103;DHT22;4094;49.948;11.574;2023-04-03T11:16:04;12.00;42.80
8103;DHT22;4094;49.948;11.574;2023-04-03T11:18:39;12.00;43.00
8103;DHT22;4094;49.948;11.574;2023-04-03T11:21:14;12.10;42.90
8103;DHT22;4094;49.948;11.574;2023-04-03T11:23:45;12.10;43.30
8103;DHT22;4094;49.948;11.574;2023-04-03T11:26:19;12.10;43.10
8103;DHT22;4094;49.948;11.574;2023-04-03T11:28:53;12.20;43.90
8103;DHT22;4094;49.948;11.574;2023-04-03T11:31:37;12.30;43.60
8103;DHT22;4094;49.948;11.574;2023-04-03T11:34:20;12.30;42.90
8103;DHT22;4094;49.948;11.574;2023-04-03T11:36:56;12.40;42.70
8103;DHT22;4094;49.948;11.574;2023-04-03T11:39:28;12.50;42.90
8103;DHT22;4094;49.948;11.574;2023-04-03T11:42:14;12.60;43.10
8103;DHT22;4094;49.948;11.574;2023-04-03T11:44:44;12.80;42.00
8103;DHT22;4094;49.948;11.574;2023-04-03T11:47:45;12.90;42.50
8103;DHT22;4094;49.948;11.574;2023-04-03T11:50:39;13.00;42.60
8103;DHT22;4094;49.948;11.574;2023-04-03T11:53:29;13.20;41.80
8103;DHT22;4094;49.948;11.574;2023-04-03T11:56:32;13.40;41.20
8103;DHT22;4094;49.948;11.574;2023-04-03T11:59:23;13.60;41.90
8103;DHT22;4094;49.948;11.574;2023-04-03T12:01:53;13.70;40.90
8103;DHT22;4094;49.948;11.574;2023-04-03T12:04:25;13.90;41.10
8103;DHT22;4094;49.948;11.574;2023-04-03T12:07:14;14.00;41.40
8103;DHT22;4094;49.948;11.574;2023-04-03T12:10:18;14.20;41.00
8103;DHT22;4094;49.948;11.574;2023-04-03T12:13:00;14.40;41.30
8103;DHT22;4094;49.948;11.574;2023-04-03T12:15:52;14.50;40.60
8103;DHT22;4094;49.948;11.574;2023-04-03T12:18:59;14.80;40.00
8103;DHT22;4094;49.948;11.574;2023-04-03T12:24:50;15.30;39.70
8103;DHT22;4094;49.948;11.574;2023-04-03T12:27:34;15.60;39.40
8103;DHT22;4094;49.948;11.574;2023-04-03T12:30:24;16.00;39.00
8103;DHT22;4094;49.948;11.574;2023-04-03T12:33:30;16.40;38.70
8103;DHT22;4094;49.948;11.574;2023-04-03T12:36:08;17.00;39.50
8103;DHT22;4094;49.948;11.574;2023-04-03T12:38:58;17.50;37.50
8103;DHT22;4094;49.948;11.574;2023-04-03T12:41:38;18.10;36.80
8103;DHT22;4094;49.948;11.574;2023-04-03T12:44:33;18.60;35.90
8103;DHT22;4094;49.948;11.574;2023-04-03T12:47:23;19.20;35.30
8103;DHT22;4094;49.948;11.574;2023-04-03T12:49:54;19.70;35.20
8103;DHT22;4094;49.948;11.574;2023-04-03T12:52:32;20.30;34.90
8103;DHT22;4094;49.948;11.574;2023-04-03T12:55:03;20.90;33.30
8103;DHT22;4094;49.948;11.574;2023-04-03T12:57:37;21.30;33.00
8103;DHT22;4094;49.948;11.574;2023-04-03T13:00:30;21.70;33.10
8103;DHT22;4094;49.948;11.574;2023-04-03T13:03:03;21.80;30.70
8103;DHT22;4094;49.948;11.574;2023-04-03T13:05:33;21.70;30.60
8103;DHT22;4094;49.948;11.574;2023-04-03T13:08:09;21.60;30.10
8103;DHT22;4094;49.948;11.574;2023-04-03T13:10:54;21.30;29.90
8103;DHT22;4094;49.948;11.574;2023-04-03T13:13:24;20.90;29.60
8103;DHT22;4094;49.948;11.574;2023-04-03T13:15:55;20.50;30.00
8103;DHT22;4094;49.948;11.574;2023-04-03T13:18:28;20.00;29.90
8103;DHT22;4094;49.948;11.574;2023-04-03T13:21:03;19.60;30.00
8103;DHT22;4094;49.948;11.574;2023-04-03T13:23:35;19.10;30.30
8103;DHT22;4094;49.948;11.574;2023-04-03T13:26:05;18.70;30.90
8103;DHT22;4094;49.948;11.574;2023-04-03T13:28:36;18.30;31.50
8103;DHT22;4094;49.948;11.574;2023-04-03T13:31:19;17.90;31.20
8103;DHT22;4094;49.948;11.574;2023-04-03T13:33:57;17.50;30.90
8103;DHT22;4094;49.948;11.574;2023-04-03T13:36:29;17.10;31.50
8103;DHT22;4094;49.948;11.574;2023-04-03T13:39:03;16.80;31.90
8103;DHT22;4094;49.948;11.574;2023-04-03T13:41:35;16.60;32.30
8103;DHT22;4094;49.948;11.574;2023-04-03T13:44:33;16.30;32.30
8103;DHT22;4094;49.948;11.574;2023-04-03T13:47:18;16.10;32.70
8103;DHT22;4094;49.948;11.574;2023-04-03T13:49:59;15.80;32.80
8103;DHT22;4094;49.948;11.574;2023-04-03T13:52:33;15.60;33.00
8103;DHT22;4094;49.948;11.574;2023-04-03T13:55:16;15.40;33.60
8103;DHT22;4094;49.948;11.574;2023-04-03T13:57:56;15.20;33.40
8103;DHT22;4094;49.948;11.574;2023-04-03T14:00:34;15.00;32.80
8103;DHT22;4094;49.948;11.574;2023-04-03T14:03:13;14.90;33.50
8103;DHT22;4094;49.948;11.574;2023-04-03T14:05:43;14.80;33.70
8103;DHT22;4094;49.948;11.574;2023-04-03T14:08:13;14.60;34.00
8103;DHT22;4094;49.948;11.574;2023-04-03T14:10:43;14.50;34.20
8103;DHT22;4094;49.948;11.574;2023-04-03T14:13:14;14.40;34.10
8103;DHT22;4094;49.948;11.574;2023-04-03T14:15:44;14.30;34.60
8103;DHT22;4094;49.948;11.574;2023-04-03T14:18:19;14.20;34.80
8103;DHT22;4094;49.948;11.574;2023-04-03T14:20:50;14.10;34.40
8103;DHT22;4094;49.948;11.574;2023-04-03T14:23:19;14.00;34.20
8103;DHT22;4094;49.948;11.574;2023-04-03T14:25:48;13.90;34.30
8103;DHT22;4094;49.948;11.574;2023-04-03T14:28:21;13.90;34.30
8103;DHT22;4094;49.948;11.574;2023-04-03T14:30:51;13.90;34.60
8103;DHT22;4094;49.948;11.574;2023-04-03T14:42:58;13.50;35.10
8103;DHT22;4094;49.948;11.574;2023-04-03T14:45:27;13.30;35.30
8103;DHT22;4094;49.948;11.574;2023-04-03T15:04:38;11.80;36.50
8103;DHT22;4094;49.948;11.574;2023-04-03T15:07:08;11.50;36.70
8103;DHT22;4094;49.948;11.574;2023-04-03T15:09:37;11.40;37.00
8103;DHT22;4094;49.948;11.574;2023-04-03T15:12:08;11.40;37.40
8103;DHT22;4094;49.948;11.574;2023-04-03T15:14:37;11.50;37.40
8103;DHT22;4094;49.948;11.574;2023-04-03T15:17:15;11.50;37.20
8103;DHT22;4094;49.948;11.574;2023-04-03T15:19:46;11.60;37.30
8103;DHT22;4094;49.948;11.574;2023-04-03T15:22:15;11.60;37.50
8103;DHT22;4094;49.948;11.574;2023-04-03T15:24:45;11.60;37.10
8103;DHT22;4094;49.948;11.574;2023-04-03T15:27:14;11.50;36.80
8103;DHT22;4094;49.948;11.574;2023-04-03T15:29:44;11.50;36.80
8103;DHT22;4094;49.948;11.574;2023-04-03T15:32:13;11.50;36.80
8103;DHT22;4094;49.948;11.574;2023-04-03T15:34:42;11.50;37.30
8103;DHT22;4094;49.948;11.574;2023-04-03T15:37:13;11.50;37.10
8103;DHT22;4094;49.948;11.574;2023-04-03T15:39:42;11.50;37.00
8103;DHT22;4094;49.948;11.574;2023-04-03T15:42:11;11.50;36.50
8103;DHT22;4094;49.948;11.574;2023-04-03T15:44:40;11.50;36.60
8103;DHT22;4094;49.948;11.574;2023-04-03T15:47:09;11.50;36.40
8103;DHT22;4094;49.948;11.574;2023-04-03T15:49:38;11.40;36.40
8103;DHT22;4094;49.948;11.574;2023-04-03T15:52:08;11.40;36.50
8103;DHT22;4094;49.948;11.574;2023-04-03T15:54:38;11.40;36.60
8103;DHT22;4094;49.948;11.574;2023-04-03T15:57:07;11.40;36.60
8103;DHT22;4094;49.948;11.574;2023-04-03T15:59:36;11.30;37.00
8103;DHT22;4094;49.948;11.574;2023-04-03T16:02:07;11.30;37.10
8103;DHT22;4094;49.948;11.574;2023-04-03T16:04:41;11.30;37.50
8103;DHT22;4094;49.948;11.574;2023-04-03T16:07:10;11.30;37.10
8103;DHT22;4094;49.948;11.574;2023-04-03T16:09:40;11.20;36.80
8103;DHT22;4094;49.948;11.574;2023-04-03T16:12:10;11.20;36.70
8103;DHT22;4094;49.948;11.574;2023-04-03T16:14:39;11.20;37.30
8103;DHT22;4094;49.948;11.574;2023-04-03T16:17:08;11.20;37.60
8103;DHT22;4094;49.948;11.574;2023-04-03T16:19:37;11.20;37.20
8103;DHT22;4094;49.948;11.574;2023-04-03T16:22:06;11.10;37.20
8103;DHT22;4094;49.948;11.574;2023-04-03T16:24:35;11.00;37.30
8103;DHT22;4094;49.948;11.574;2023-04-03T16:27:07;11.00;37.00
8103;DHT22;4094;49.948;11.574;2023-04-03T16:29:35;10.90;36.80
8103;DHT22;4094;49.948;11.574;2023-04-03T16:32:04;10.80;36.90
8103;DHT22;4094;49.948;11.574;2023-04-03T16:34:34;10.70;37.10
8103;DHT22;4094;49.948;11.574;2023-04-03T16:37:03;10.70;37.40
8103;DHT22;4094;49.948;11.574;2023-04-03T16:39:32;10.70;37.40
8103;DHT22;4094;49.948;11.574;2023-04-03T16:42:01;10.60;37.60
8103;DHT22;4094;49.948;11.574;2023-04-03T16:44:32;10.50;37.60
8103;DHT22;4094;49.948;11.574;2023-04-03T16:47:01;10.50;37.80
8103;DHT22;4094;49.948;11.574;2023-04-03T16:49:30;10.40;38.00
8103;DHT22;4094;49.948;11.574;2023-04-03T16:52:03;10.40;38.20
8103;DHT22;4094;49.948;11.574;2023-04-03T16:54:32;10.40;38.40
8103;DHT22;4094;49.948;11.574;2023-04-03T17:00:09;10.30;37.70
8103;DHT22;4094;49.948;11.574;2023-04-03T17:02:39;10.30;38.20
8103;DHT22;4094;49.948;11.574;2023-04-03T17:05:08;10.20;37.80